Time;durP1;ratioP1;P1;durP2;ratioP2;P2;SDS_P1;SDS_P2;PMS_P1;PMS_P2;Temp;Humidity;BMP_temperature;BMP_pressure;BME280_temperature;BME280_humidity;BME280_pressure;Samples;Min_cycle;Max_cycle;Signal;HPM_P1;HPM_P2
2023/03/20 00:00:03;;;;;;;2.92;2.83;;;;;;;;;;5074917;28;20497;-91
2023/03/20 00:02:30;;;;;;;2.40;2.30;;;;;;;;;;5075101;28;20106;-91
2023/03/20 00:04:56;;;;;;;2.15;2.05;;;;;;;;;;5074964;28;20048;-91
2023/03/20 00:07:24;;;;;;;3.10;1.67;;;;;;;;;;5073277;28;20399;-91
2023/03/20 00:09:51;;;;;;;1.67;1.58;;;;;;;;;;5074017;28;20078;-91
2023/03/20 00:12:18;;;;;;;3.63;3.45;;;;;;;;;;5074684;28;20053;-91
2023/03/20 00:14:45;;;;;;;2.08;1.98;;;;;;;;;;5074492;28;20048;-91
2023/03/20 00:17:17;;;;;;;2.05;1.95;;;;;;;;;;5074723;28;20106;-92
2023/03/20 00:19:43;;;;;;;2.58;2.38;;;;;;;;;;5074303;28;20547;-91
2023/03/20 00:22:09;;;;;;;3.15;2.78;;;;;;;;;;5074487;28;20056;-91
2023/03/20 00:24:37;;;;;;;1.83;1.73;;;;;;;;;;5074666;28;20444;-91
2023/03/20 00:27:04;;;;;;;1.63;1.52;;;;;;;;;;5073942;28;20048;-91
2023/03/20 00:29:33;;;;;;;1.98;1.48;;;;;;;;;;5074260;28;20131;-91
2023/03/20 00:31:59;;;;;;;2.70;2.58;;;;;;;;;;5074570;28;20131;-91
2023/03/20 00:34:27;;;;;;;1.38;1.27;;;;;;;;;;5074614;28;20102;-92
2023/03/20 00:36:55;;;;;;;13.52;4.72;;;;;;;;;;5074499;28;20131;-92
2023/03/20 00:39:22;;;;;;;3.85;3.67;;;;;;;;;;5074455;28;20051;-92
2023/03/20 00:41:51;;;;;;;3.20;3.00;;;;;;;;;;5073635;28;20139;-92
2023/03/20 00:44:20;;;;;;;2.42;2.25;;;;;;;;;;5073941;28;20041;-91
2023/03/20 00:46:48;;;;;;;2.00;1.90;;;;;;;;;;5074496;28;20072;-91
2023/03/20 00:49:15;;;;;;;1.45;1.35;;;;;;;;;;5074100;28;20060;-91
2023/03/20 00:51:41;;;;;;;1.83;1.55;;;;;;;;;;5092469;28;20062;-92
2023/03/20 00:54:12;;;;;;;2.20;2.10;;;;;;;;;;5094360;28;20044;-91
2023/03/20 00:56:41;;;;;;;2.88;2.67;;;;;;;;;;5076718;28;20044;-91
2023/03/20 00:59:14;;;;;;;2.25;2.15;;;;;;;;;;5074000;28;20048;-91
2023/03/20 01:01:41;;;;;;;1.83;1.73;;;;;;;;;;5067956;28;20544;-90
2023/03/20 01:04:11;;;;;;;7.30;7.00;;;;;;;;;;5074183;28;20446;-90
2023/03/20 01:06:38;;;;;;;1.50;1.40;;;;;;;;;;5074003;28;20048;-90
2023/03/20 01:09:04;;;;;;;3.00;2.80;;;;;;;;;;5073950;28;20048;-91
2023/03/20 01:11:31;;;;;;;2.67;2.47;;;;;;;;;;5073796;28;20110;-91
2023/03/20 01:13:58;;;;;;;1.50;1.40;;;;;;;;;;5074115;28;20045;-91
2023/03/20 01:16:26;;;;;;;2.15;2.00;;;;;;;;;;5075898;28;20051;-91
2023/03/20 01:18:53;;;;;;;2.70;2.60;;;;;;;;;;5083919;28;20482;-91
2023/03/20 01:21:20;;;;;;;1.00;1.00;;;;;;;;;;5072941;28;20448;-91
2023/03/20 01:23:47;;;;;;;1.98;1.90;;;;;;;;;;5074287;28;20075;-90
2023/03/20 01:26:27;;;;;;;1.83;1.73;;;;;;;;;;5074143;28;20052;-91
2023/03/20 01:28:53;;;;;;;2.92;2.83;;;;;;;;;;5074422;28;20102;-91
2023/03/20 01:31:20;;;;;;;2.72;2.53;;;;;;;;;;5075604;28;20110;-91
2023/03/20 01:33:48;;;;;;;3.00;2.80;;;;;;;;;;5070340;28;20397;-91
2023/03/20 01:36:16;;;;;;;2.53;2.42;;;;;;;;;;5086120;28;20056;-91
2023/03/20 01:38:43;;;;;;;1.70;1.60;;;;;;;;;;5094055;28;20048;-91
2023/03/20 01:41:12;;;;;;;1.67;1.58;;;;;;;;;;5093945;28;20052;-91
2023/03/20 01:43:39;;;;;;;0.98;0.98;;;;;;;;;;5093749;28;20113;-91
2023/03/20 01:46:16;;;;;;;1.52;1.42;;;;;;;;;;5094054;28;20052;-91
2023/03/20 01:48:58;;;;;;;3.35;3.20;;;;;;;;;;5094602;28;20056;-91
2023/03/20 01:51:25;;;;;;;1.70;1.60;;;;;;;;;;5081276;28;20048;-90
2023/03/20 01:53:53;;;;;;;1.95;1.85;;;;;;;;;;5075769;28;20386;-91
2023/03/20 01:56:20;;;;;;;2.67;2.58;;;;;;;;;;5078958;28;20044;-91
2023/03/20 01:58:48;;;;;;;4.07;3.88;;;;;;;;;;5077841;28;20041;-91
2023/03/20 02:01:15;;;;;;;0.73;0.73;;;;;;;;;;5077305;28;20104;-91
2023/03/20 02:03:44;;;;;;;1.92;1.83;;;;;;;;;;5086628;28;20053;-92
2023/03/20 02:06:11;;;;;;;1.15;1.08;;;;;;;;;;5082255;28;20048;-92
2023/03/20 02:08:41;;;;;;;2.63;2.40;;;;;;;;;;5075741;28;20057;-90
2023/03/20 02:11:08;;;;;;;1.45;1.42;;;;;;;;;;5076988;28;20044;-90
2023/03/20 02:13:35;;;;;;;1.48;1.48;;;;;;;;;;5076383;28;20455;-90
2023/03/20 02:16:03;;;;;;;1.60;1.50;;;;;;;;;;5084797;28;20048;-90
2023/03/20 02:18:30;;;;;;;1.60;1.50;;;;;;;;;;5096659;28;20081;-90
2023/03/20 02:21:15;;;;;;;2.15;1.65;;;;;;;;;;5096872;28;20505;-91
2023/03/20 02:23:57;;;;;;;1.67;1.55;;;;;;;;;;5090954;28;20098;-91
2023/03/20 02:26:33;;;;;;;5.60;2.53;;;;;;;;;;5056392;28;20053;-91
2023/03/20 02:29:27;;;;;;;2.67;1.55;;;;;;;;;;5057021;28;20192;-92
2023/03/20 02:32:26;;;;;;;2.33;2.20;;;;;;;;;;4997032;28;20137;-91
2023/03/20 02:35:01;;;;;;;1.80;1.70;;;;;;;;;;4995383;28;20054;-91
2023/03/20 02:37:37;;;;;;;1.95;1.85;;;;;;;;;;4995059;28;20046;-91
2023/03/20 02:40:15;;;;;;;1.95;1.85;;;;;;;;;;4999211;28;20088;-91
2023/03/20 02:42:45;;;;;;;1.45;1.40;;;;;;;;;;4995004;28;20104;-92
2023/03/20 02:45:15;;;;;;;2.20;2.10;;;;;;;;;;4995359;28;20073;-91
2023/03/20 02:47:46;;;;;;;2.00;1.90;;;;;;;;;;4994575;28;20050;-90
2023/03/20 02:50:13;;;;;;;;;;;;;;;;;;4994612;28;20050;-90
2023/03/20 02:52:44;;;;;;;1.42;1.38;;;;;;;;;;4997262;28;20023;-91
2023/03/20 02:55:16;;;;;;;2.25;2.15;;;;;;;;;;4996799;28;20054;-91
2023/03/20 02:57:45;;;;;;;2.75;2.65;;;;;;;;;;5009035;28;20786;-91
2023/03/20 03:00:14;;;;;;;1.55;1.45;;;;;;;;;;5014024;28;20490;-90
2023/03/20 03:02:44;;;;;;;2.38;2.28;;;;;;;;;;5013832;28;20050;-89
2023/03/20 03:05:13;;;;;;;0.93;0.93;;;;;;;;;;5013375;28;20112;-90
2023/03/20 03:07:42;;;;;;;1.15;1.13;;;;;;;;;;5034971;28;20052;-90
2023/03/20 03:10:11;;;;;;;1.63;1.52;;;;;;;;;;5054932;28;20052;-89
2023/03/20 03:12:41;;;;;;;0.60;0.60;;;;;;;;;;5062176;28;20053;-90
2023/03/20 03:15:13;;;;;;;3.55;1.65;;;;;;;;;;5075270;28;20140;-89
2023/03/20 03:17:43;;;;;;;0.88;0.88;;;;;;;;;;5074986;28;20114;-89
2023/03/20 03:20:15;;;;;;;1.98;1.88;;;;;;;;;;5075594;28;20052;-90
2023/03/20 03:22:42;;;;;;;1.27;1.25;;;;;;;;;;5075028;28;20558;-89
2023/03/20 03:25:10;;;;;;;1.90;1.80;;;;;;;;;;5075470;28;20477;-90
2023/03/20 03:27:40;;;;;;;1.70;1.60;;;;;;;;;;5075093;28;20048;-90
2023/03/20 03:30:10;;;;;;;4.07;3.97;;;;;;;;;;5072938;28;20102;-90
2023/03/20 03:32:46;;;;;;;1.65;1.55;;;;;;;;;;5075096;28;20052;-90
2023/03/20 03:35:15;;;;;;;1.77;1.67;;;;;;;;;;5075021;28;20048;-90
2023/03/20 03:37:45;;;;;;;3.08;1.60;;;;;;;;;;5074430;28;20044;-90
2023/03/20 03:40:17;;;;;;;1.48;1.40;;;;;;;;;;5075296;28;20056;-90
2023/03/20 03:42:49;;;;;;;1.50;1.48;;;;;;;;;;5074616;28;20102;-89
2023/03/20 03:45:17;;;;;;;1.65;1.55;;;;;;;;;;5073917;28;20045;-89
2023/03/20 03:47:45;;;;;;;2.30;2.08;;;;;;;;;;5074649;28;20139;-90
2023/03/20 03:50:14;;;;;;;2.42;2.33;;;;;;;;;;5074470;28;20149;-90
2023/03/20 03:52:41;;;;;;;1.27;1.23;;;;;;;;;;5074593;28;20056;-91
2023/03/20 03:55:10;;;;;;;1.52;1.42;;;;;;;;;;5075196;28;20053;-90
2023/03/20 03:57:39;;;;;;;11.40;1.95;;;;;;;;;;5074581;28;20101;-90
2023/03/20 04:00:10;;;;;;;2.53;2.42;;;;;;;;;;5074696;28;20049;-90
2023/03/20 04:02:37;;;;;;;1.23;1.13;;;;;;;;;;5073933;28;20094;-89
2023/03/20 04:05:05;;;;;;;1.50;1.40;;;;;;;;;;5074487;28;20460;-91
2023/03/20 04:07:32;;;;;;;3.95;2.78;;;;;;;;;;5075128;28;20044;-90
2023/03/20 04:09:58;;;;;;;2.38;2.28;;;;;;;;;;5074914;28;20102;-91
2023/03/20 04:12:34;;;;;;;1.80;1.70;;;;;;;;;;5074391;28;20066;-90
2023/03/20 04:15:01;;;;;;;3.35;3.22;;;;;;;;;;5074524;28;20056;-90
2023/03/20 04:17:29;;;;;;;1.48;1.38;;;;;;;;;;5073546;28;20098;-90
2023/03/20 04:19:55;;;;;;;1.23;1.08;;;;;;;;;;5072679;28;20044;-91
2023/03/20 04:22:22;;;;;;;1.38;0.75;;;;;;;;;;5074488;28;20452;-91
2023/03/20 04:24:50;;;;;;;2.25;2.15;;;;;;;;;;5074177;28;20053;-91
2023/03/20 04:27:16;;;;;;;0.80;0.80;;;;;;;;;;5074317;28;20044;-91
2023/03/20 04:29:43;;;;;;;2.13;2.03;;;;;;;;;;5074123;28;20049;-91
2023/03/20 04:32:10;;;;;;;0.80;0.80;;;;;;;;;;5074146;28;20091;-91
2023/03/20 04:34:38;;;;;;;1.10;1.10;;;;;;;;;;5072252;28;20044;-92
2023/03/20 04:37:07;;;;;;;3.80;2.90;;;;;;;;;;5054265;28;20052;-91
2023/03/20 04:39:33;;;;;;;1.42;1.33;;;;;;;;;;5054588;28;20044;-90
2023/03/20 04:42:00;;;;;;;2.03;1.92;;;;;;;;;;5054872;28;20053;-90
2023/03/20 04:44:26;;;;;;;1.77;1.67;;;;;;;;;;5054773;28;20045;-91
2023/03/20 04:46:53;;;;;;;2.38;2.28;;;;;;;;;;5053778;28;20494;-90
2023/03/20 04:49:19;;;;;;;1.98;1.88;;;;;;;;;;5054202;28;20049;-90
2023/03/20 04:51:47;;;;;;;1.50;1.40;;;;;;;;;;5059024;28;20041;-90
2023/03/20 04:54:14;;;;;;;2.15;2.05;;;;;;;;;;5054046;28;20053;-90
2023/03/20 04:56:40;;;;;;;0.93;0.93;;;;;;;;;;5053604;28;20711;-91
2023/03/20 04:59:07;;;;;;;4.88;4.47;;;;;;;;;;5054161;28;20102;-92
2023/03/20 05:01:33;;;;;;;2.30;2.20;;;;;;;;;;5054049;28;20053;-91
2023/03/20 05:04:00;;;;;;;3.30;3.17;;;;;;;;;;5055474;28;20041;-92
2023/03/20 05:06:26;;;;;;;1.35;1.25;;;;;;;;;;5054128;28;20140;-90
2023/03/20 05:08:54;;;;;;;2.35;2.25;;;;;;;;;;5060660;28;20044;-91
2023/03/20 05:11:21;;;;;;;3.13;2.20;;;;;;;;;;5073788;28;20048;-90
2023/03/20 05:13:47;;;;;;;2.67;2.45;;;;;;;;;;5073827;28;20048;-90
2023/03/20 05:16:14;;;;;;;2.55;2.40;;;;;;;;;;5073754;28;20482;-90
2023/03/20 05:18:40;;;;;;;1.13;1.02;;;;;;;;;;5073970;28;20048;-90
2023/03/20 05:21:07;;;;;;;2.17;2.08;;;;;;;;;;5073491;28;20516;-90
2023/03/20 05:23:34;;;;;;;1.88;1.75;;;;;;;;;;5073267;28;20110;-89
2023/03/20 05:26:02;;;;;;;1.77;1.67;;;;;;;;;;5073585;28;20068;-90
2023/03/20 05:28:29;;;;;;;0.73;0.73;;;;;;;;;;5074117;28;20052;-91
2023/03/20 05:30:55;;;;;;;1.60;1.15;;;;;;;;;;5078028;28;20390;-91
2023/03/20 05:33:22;;;;;;;1.40;1.35;;;;;;;;;;5077656;28;20121;-92
2023/03/20 05:35:49;;;;;;;2.45;1.92;;;;;;;;;;5078087;28;20460;-93
2023/03/20 05:38:15;;;;;;;1.90;1.80;;;;;;;;;;5077690;28;20504;-91
2023/03/20 05:40:42;;;;;;;1.42;1.15;;;;;;;;;;5073146;28;20095;-92
2023/03/20 05:43:10;;;;;;;1.63;1.52;;;;;;;;;;5080450;28;20049;-92
2023/03/20 05:45:36;;;;;;;2.00;1.77;;;;;;;;;;5077146;28;20102;-92
2023/03/20 05:48:03;;;;;;;2.72;2.63;;;;;;;;;;5077338;28;20109;-92
2023/03/20 05:50:30;;;;;;;1.63;1.52;;;;;;;;;;5077583;28;20559;-93
2023/03/20 05:52:56;;;;;;;1.42;1.33;;;;;;;;;;5077189;28;20512;-92
2023/03/20 05:55:23;;;;;;;2.03;1.92;;;;;;;;;;5077083;28;20052;-92
2023/03/20 05:57:49;;;;;;;2.42;2.33;;;;;;;;;;5076497;28;20094;-93
2023/03/20 06:00:18;;;;;;;0.73;0.73;;;;;;;;;;5076220;28;20118;-92
2023/03/20 06:02:45;;;;;;;3.78;3.60;;;;;;;;;;5074465;28;20044;-92
2023/03/20 06:05:11;;;;;;;2.58;2.47;;;;;;;;;;5077577;28;20482;-93
2023/03/20 06:07:38;;;;;;;2.75;2.55;;;;;;;;;;5077634;28;20052;-92
2023/03/20 06:10:05;;;;;;;4.57;4.28;;;;;;;;;;5077041;28;20048;-92
2023/03/20 06:12:31;;;;;;;4.57;2.85;;;;;;;;;;5083945;28;20044;-92
2023/03/20 06:14:58;;;;;;;1.73;1.63;;;;;;;;;;5086612;28;20068;-91
2023/03/20 06:17:25;;;;;;;3.90;2.75;;;;;;;;;;5073563;28;20048;-91
2023/03/20 06:19:52;;;;;;;1.73;1.63;;;;;;;;;;5075807;28;20567;-91
2023/03/20 06:22:19;;;;;;;3.03;2.83;;;;;;;;;;5081304;28;20059;-92
2023/03/20 06:24:46;;;;;;;7.47;2.03;;;;;;;;;;5096720;28;20048;-91
2023/03/20 06:27:12;;;;;;;4.90;2.97;;;;;;;;;;5096773;28;20059;-92
2023/03/20 06:29:39;;;;;;;3.85;3.60;;;;;;;;;;5096679;28;20105;-91
2023/03/20 06:32:06;;;;;;;4.38;3.47;;;;;;;;;;5096485;28;20048;-90
2023/03/20 06:34:34;;;;;;;4.95;2.63;;;;;;;;;;5087304;28;20722;-91
2023/03/20 06:37:01;;;;;;;5.53;5.10;;;;;;;;;;5076206;28;20558;-90
2023/03/20 06:39:28;;;;;;;3.08;2.88;;;;;;;;;;5075384;28;20106;-91
2023/03/20 06:41:54;;;;;;;3.30;2.92;;;;;;;;;;5076530;28;20382;-90
2023/03/20 06:44:21;;;;;;;4.18;3.85;;;;;;;;;;5095903;28;20052;-91
2023/03/20 06:46:48;;;;;;;7.70;3.42;;;;;;;;;;5096136;28;20455;-91
2023/03/20 06:49:15;;;;;;;3.00;2.80;;;;;;;;;;5096211;28;20048;-91
2023/03/20 06:51:44;;;;;;;3.63;3.35;;;;;;;;;;5090251;28;20092;-90
2023/03/20 06:54:10;;;;;;;3.17;2.95;;;;;;;;;;5075497;28;20460;-91
2023/03/20 06:56:37;;;;;;;4.05;3.85;;;;;;;;;;5075903;28;20053;-91
2023/03/20 06:59:03;;;;;;;4.78;4.13;;;;;;;;;;5075344;28;20487;-91
2023/03/20 07:01:30;;;;;;;3.10;2.90;;;;;;;;;;5075537;28;20052;-91
2023/03/20 07:03:56;;;;;;;5.32;4.38;;;;;;;;;;5091672;28;20052;-90
2023/03/20 07:06:23;;;;;;;5.18;4.88;;;;;;;;;;5095659;28;20056;-90
2023/03/20 07:08:52;;;;;;;4.43;4.13;;;;;;;;;;5095544;28;20382;-90
2023/03/20 07:11:18;;;;;;;2.42;2.33;;;;;;;;;;5074547;28;20051;-91
2023/03/20 07:13:45;;;;;;;2.85;2.72;;;;;;;;;;5075407;28;20126;-90
2023/03/20 07:16:11;;;;;;;3.67;3.45;;;;;;;;;;5075297;28;20463;-90
2023/03/20 07:18:38;;;;;;;4.80;3.70;;;;;;;;;;5075292;28;20053;-90
2023/03/20 07:21:06;;;;;;;7.50;6.78;;;;;;;;;;5075544;28;20177;-90
2023/03/20 07:23:34;;;;;;;6.97;6.68;;;;;;;;;;5086954;28;20134;-89
2023/03/20 07:26:02;;;;;;;3.97;3.67;;;;;;;;;;5080469;28;20814;-92
2023/03/20 07:28:28;;;;;;;6.03;5.72;;;;;;;;;;5077641;28;20470;-91
2023/03/20 07:30:55;;;;;;;5.85;4.60;;;;;;;;;;5082756;28;20044;-91
2023/03/20 07:33:22;;;;;;;4.97;4.57;;;;;;;;;;5079931;28;20397;-91
2023/03/20 07:35:51;;;;;;;7.30;6.35;;;;;;;;;;5078350;28;20093;-91
2023/03/20 07:38:18;;;;;;;7.60;6.13;;;;;;;;;;5083490;28;20567;-91
2023/03/20 07:40:44;;;;;;;3.10;2.90;;;;;;;;;;5078441;28;20045;-90
2023/03/20 07:43:12;;;;;;;5.43;4.45;;;;;;;;;;5074343;28;20049;-90
2023/03/20 07:45:39;;;;;;;5.03;4.60;;;;;;;;;;5074721;28;20044;-89
2023/03/20 07:48:05;;;;;;;3.13;2.92;;;;;;;;;;5074599;28;20110;-90
2023/03/20 07:50:32;;;;;;;7.55;7.13;;;;;;;;;;5074413;28;20543;-90
2023/03/20 07:52:59;;;;;;;5.25;4.53;;;;;;;;;;5074482;28;20567;-91
2023/03/20 07:55:25;;;;;;;3.60;3.40;;;;;;;;;;5074490;28;20135;-91
2023/03/20 07:57:52;;;;;;;6.22;4.70;;;;;;;;;;5074542;28;20051;-91
2023/03/20 08:00:20;;;;;;;4.70;4.15;;;;;;;;;;5074405;28;20452;-91
2023/03/20 08:02:47;;;;;;;4.50;4.20;;;;;;;;;;5074476;28;20117;-91
2023/03/20 08:05:13;;;;;;;7.32;6.72;;;;;;;;;;5074609;28;20055;-91
2023/03/20 08:07:40;;;;;;;5.22;4.82;;;;;;;;;;5074507;28;20160;-90
2023/03/20 08:10:07;;;;;;;5.65;5.20;;;;;;;;;;5075115;28;20045;-91
2023/03/20 08:12:33;;;;;;;5.20;4.80;;;;;;;;;;5074326;28;20044;-89
2023/03/20 08:15:00;;;;;;;5.47;5.05;;;;;;;;;;5073722;28;20091;-91
2023/03/20 08:17:28;;;;;;;6.00;5.35;;;;;;;;;;5073564;28;20045;-90
2023/03/20 08:19:54;;;;;;;5.55;5.18;;;;;;;;;;5073575;28;20094;-91
2023/03/20 08:22:21;;;;;;;9.25;5.70;;;;;;;;;;5073986;28;20124;-91
2023/03/20 08:24:47;;;;;;;7.55;6.13;;;;;;;;;;5073547;28;20048;-91
2023/03/20 08:27:14;;;;;;;5.72;5.38;;;;;;;;;;5073813;28;20501;-90
2023/03/20 08:29:40;;;;;;;8.15;6.85;;;;;;;;;;5073671;28;20044;-90
2023/03/20 08:32:08;;;;;;;5.20;4.90;;;;;;;;;;5073562;28;20045;-90
2023/03/20 08:34:36;;;;;;;6.35;5.85;;;;;;;;;;5073515;28;20045;-91
2023/03/20 08:37:03;;;;;;;6.00;5.55;;;;;;;;;;5073073;28;20506;-90
2023/03/20 08:39:31;;;;;;;5.93;4.93;;;;;;;;;;5073276;28;20044;-90
2023/03/20 08:41:58;;;;;;;4.70;4.40;;;;;;;;;;5073525;28;20521;-91
2023/03/20 08:44:25;;;;;;;10.00;9.20;;;;;;;;;;5073718;28;20098;-90
2023/03/20 08:46:53;;;;;;;4.95;4.65;;;;;;;;;;5072912;28;20049;-90
2023/03/20 08:49:20;;;;;;;7.10;6.60;;;;;;;;;;5086914;28;20044;-90
2023/03/20 08:51:48;;;;;;;6.05;5.15;;;;;;;;;;5072282;28;20040;-89
2023/03/20 08:54:17;;;;;;;5.95;5.63;;;;;;;;;;5073044;28;20464;-90
2023/03/20 08:56:43;;;;;;;5.15;4.85;;;;;;;;;;5073500;28;20048;-90
2023/03/20 08:59:10;;;;;;;5.28;4.88;;;;;;;;;;5073745;28;20049;-91
2023/03/20 09:01:36;;;;;;;6.72;6.30;;;;;;;;;;5073413;28;20056;-90
2023/03/20 09:04:03;;;;;;;4.53;4.22;;;;;;;;;;5075536;28;20049;-91
2023/03/20 09:06:30;;;;;;;6.28;5.88;;;;;;;;;;5077447;28;20053;-91
2023/03/20 09:08:58;;;;;;;5.30;4.95;;;;;;;;;;5078887;28;20416;-91
2023/03/20 09:11:25;;;;;;;5.85;5.55;;;;;;;;;;5077318;28;20135;-90
2023/03/20 09:13:51;;;;;;;5.07;4.18;;;;;;;;;;5077236;28;20080;-91
2023/03/20 09:16:18;;;;;;;5.32;5.03;;;;;;;;;;5076619;28;20056;-90
2023/03/20 09:18:45;;;;;;;6.10;5.65;;;;;;;;;;5082405;28;20047;-90
2023/03/20 09:21:11;;;;;;;6.75;6.18;;;;;;;;;;5099718;28;20044;-92
2023/03/20 09:23:38;;;;;;;6.30;5.80;;;;;;;;;;5100297;28;20048;-92
2023/03/20 09:26:06;;;;;;;6.22;5.63;;;;;;;;;;5096598;28;20134;-92
2023/03/20 09:28:32;;;;;;;5.78;5.30;;;;;;;;;;5092648;28;20052;-90
2023/03/20 09:31:00;;;;;;;8.43;7.85;;;;;;;;;;5077535;28;20162;-91
2023/03/20 09:33:26;;;;;;;7.57;7.07;;;;;;;;;;5074593;28;20105;-90
2023/03/20 09:35:53;;;;;;;5.90;5.50;;;;;;;;;;5076807;28;20056;-91
2023/03/20 09:38:20;;;;;;;5.97;5.45;;;;;;;;;;5080475;28;20489;-90
2023/03/20 09:40:51;;;;;;;9.25;7.85;;;;;;;;;;5097977;28;20044;-91
2023/03/20 09:43:21;;;;;;;7.82;7.45;;;;;;;;;;5097518;28;20473;-92
2023/03/20 09:45:51;;;;;;;6.03;5.57;;;;;;;;;;5097265;28;20463;-92
2023/03/20 09:48:23;;;;;;;6.18;5.82;;;;;;;;;;5074847;28;20497;-92
2023/03/20 09:50:55;;;;;;;9.32;8.77;;;;;;;;;;5076969;28;20101;-92
2023/03/20 09:53:25;;;;;;;6.82;6.32;;;;;;;;;;5077101;28;20109;-92
2023/03/20 09:55:53;;;;;;;7.38;6.60;;;;;;;;;;5076535;28;20052;-91
2023/03/20 09:58:24;;;;;;;6.65;6.25;;;;;;;;;;5077832;28;20052;-92
2023/03/20 10:00:51;;;;;;;8.30;7.70;;;;;;;;;;5097473;28;20099;-91
2023/03/20 10:03:19;;;;;;;8.32;7.78;;;;;;;;;;5097322;28;20047;-93
2023/03/20 10:05:48;;;;;;;7.65;7.15;;;;;;;;;;5089190;28;20051;-93
2023/03/20 10:08:16;;;;;;;7.20;6.85;;;;;;;;;;5076710;28;20572;-94
2023/03/20 10:10:49;;;;;;;6.43;6.03;;;;;;;;;;5076505;28;20044;-93
2023/03/20 10:13:36;;;;;;;6.93;6.43;;;;;;;;;;5056768;28;20064;-92
2023/03/20 10:16:07;;;;;;;9.48;8.88;;;;;;;;;;5030005;28;20045;-92
2023/03/20 10:18:35;;;;;;;8.60;8.18;;;;;;;;;;5056561;28;20049;-91
2023/03/20 10:21:04;;;;;;;6.75;6.35;;;;;;;;;;5058533;28;20097;-92
2023/03/20 10:23:34;;;;;;;6.60;5.97;;;;;;;;;;5077795;28;20059;-92
2023/03/20 10:26:04;;;;;;;8.80;8.23;;;;;;;;;;5096230;28;20101;-90
2023/03/20 10:28:33;;;;;;;8.43;7.93;;;;;;;;;;5096192;28;20052;-91
2023/03/20 10:31:05;;;;;;;6.40;5.97;;;;;;;;;;5096234;28;20489;-90
2023/03/20 10:33:40;;;;;;;6.18;5.68;;;;;;;;;;5096185;28;20535;-90
2023/03/20 10:36:14;;;;;;;8.65;8.15;;;;;;;;;;5095754;28;20105;-92
2023/03/20 10:38:43;;;;;;;8.80;8.40;;;;;;;;;;5096846;28;20059;-92
2023/03/20 10:41:12;;;;;;;6.53;6.22;;;;;;;;;;5085341;28;20048;-91
2023/03/20 10:43:40;;;;;;;7.03;6.65;;;;;;;;;;5076104;28;20052;-92
2023/03/20 10:46:10;;;;;;;8.35;7.80;;;;;;;;;;5076187;28;20048;-91
2023/03/20 10:48:40;;;;;;;7.47;7.07;;;;;;;;;;5075762;28;20083;-93
2023/03/20 10:51:13;;;;;;;8.32;7.82;;;;;;;;;;5076448;28;20049;-94
2023/03/20 10:53:42;;;;;;;10.82;10.32;;;;;;;;;;5076371;28;20460;-92
2023/03/20 10:56:12;;;;;;;9.65;9.15;;;;;;;;;;5073786;28;20041;-91
2023/03/20 10:58:39;;;;;;;8.40;7.50;;;;;;;;;;5076099;28;20045;-92
2023/03/20 11:01:06;;;;;;;9.27;8.75;;;;;;;;;;5075708;28;20528;-92
2023/03/20 11:03:33;;;;;;;11.07;10.48;;;;;;;;;;5075760;28;20505;-92
2023/03/20 11:06:02;;;;;;;10.27;9.77;;;;;;;;;;5075097;28;20041;-91
2023/03/20 11:08:34;;;;;;;7.95;7.45;;;;;;;;;;5076104;28;20098;-91
2023/03/20 11:11:01;;;;;;;9.50;9.00;;;;;;;;;;5075359;28;20048;-91
2023/03/20 11:13:30;;;;;;;8.88;8.45;;;;;;;;;;5075669;28;20048;-91
2023/03/20 11:15:57;;;;;;;9.35;8.65;;;;;;;;;;5075918;28;20105;-91
2023/03/20 11:18:24;;;;;;;9.80;9.32;;;;;;;;;;5075326;28;20098;-92
2023/03/20 11:20:52;;;;;;;10.75;10.23;;;;;;;;;;5074750;28;20551;-93
2023/03/20 11:23:24;;;;;;;10.93;10.32;;;;;;;;;;5075036;28;20048;-92
2023/03/20 11:25:52;;;;;;;9.82;9.30;;;;;;;;;;5075092;28;20087;-91
2023/03/20 11:28:20;;;;;;;6.30;5.90;;;;;;;;;;5075709;28;20048;-91
2023/03/20 11:30:48;;;;;;;7.68;6.80;;;;;;;;;;5077966;28;20048;-92
2023/03/20 11:33:15;;;;;;;7.50;7.10;;;;;;;;;;5074779;28;20055;-91
2023/03/20 11:35:45;;;;;;;11.27;10.77;;;;;;;;;;5075373;28;20071;-92
2023/03/20 11:38:14;;;;;;;12.15;11.65;;;;;;;;;;5074980;28;20109;-92
2023/03/20 11:40:42;;;;;;;13.13;12.52;;;;;;;;;;5079829;28;20365;-90
2023/03/20 11:43:11;;;;;;;16.77;15.88;;;;;;;;;;5090739;28;20049;-92
2023/03/20 11:45:39;;;;;;;13.40;12.75;;;;;;;;;;5076849;28;20131;-92
2023/03/20 11:48:06;;;;;;;10.55;10.02;;;;;;;;;;5080713;28;20771;-92
2023/03/20 11:50:33;;;;;;;14.90;14.20;;;;;;;;;;5072680;28;20105;-91
2023/03/20 11:53:01;;;;;;;11.25;10.55;;;;;;;;;;5074681;28;20052;-91
2023/03/20 11:55:28;;;;;;;10.95;10.45;;;;;;;;;;5074385;28;20052;-91
2023/03/20 11:58:00;;;;;;;11.65;11.15;;;;;;;;;;5073649;28;20044;-92
2023/03/20 12:00:28;;;;;;;10.70;10.18;;;;;;;;;;5074266;28;20048;-91
2023/03/20 12:02:55;;;;;;;9.63;8.95;;;;;;;;;;5074887;28;20056;-92
2023/03/20 12:05:28;;;;;;;14.60;13.90;;;;;;;;;;5073588;28;20464;-90
2023/03/20 12:07:57;;;;;;;12.27;11.57;;;;;;;;;;5073103;28;20098;-94
2023/03/20 12:10:26;;;;;;;12.05;11.43;;;;;;;;;;5073976;28;20145;-91
2023/03/20 12:12:56;;;;;;;9.55;9.13;;;;;;;;;;5074200;28;20052;-92
2023/03/20 12:15:23;;;;;;;;;;;;;;;;;;5084870;28;20052;-91
2023/03/20 12:17:54;;;;;;;14.48;13.45;;;;;;;;;;5093798;28;19931;-93
2023/03/20 12:20:26;;;;;;;11.85;11.32;;;;;;;;;;5083879;28;20632;-91
2023/03/20 12:22:57;;;;;;;12.50;11.90;;;;;;;;;;5072874;28;20048;-92
2023/03/20 12:25:25;;;;;;;8.75;8.20;;;;;;;;;;5074241;28;20395;-91
2023/03/20 12:27:56;;;;;;;9.60;9.10;;;;;;;;;;5073622;28;20045;-91
2023/03/20 12:30:26;;;;;;;10.75;10.25;;;;;;;;;;5083210;28;20097;-93
2023/03/20 12:32:52;;;;;;;;;;;;;;;;;;5074012;28;20045;-91
2023/03/20 12:35:24;;;;;;;11.18;10.35;;;;;;;;;;5071632;28;19921;-92
2023/03/20 12:37:51;;;;;;;10.02;9.52;;;;;;;;;;5072731;28;20057;-91
2023/03/20 12:40:20;;;;;;;7.70;7.20;;;;;;;;;;5074019;28;20486;-91
2023/03/20 12:42:54;;;;;;;8.13;7.63;;;;;;;;;;5073334;28;20588;-93
2023/03/20 12:45:22;;;;;;;10.20;9.70;;;;;;;;;;5073971;28;20523;-91
2023/03/20 12:47:56;;;;;;;12.65;12.05;;;;;;;;;;5074555;28;20058;-92
2023/03/20 12:50:26;;;;;;;11.10;10.57;;;;;;;;;;5076598;28;20470;-92
2023/03/20 12:52:58;;;;;;;14.15;13.52;;;;;;;;;;5075791;28;20060;-92
2023/03/20 12:55:31;;;;;;;8.50;8.00;;;;;;;;;;5075815;28;20052;-92
2023/03/20 12:58:01;;;;;;;13.38;12.73;;;;;;;;;;5075009;28;20070;-92
2023/03/20 13:00:31;;;;;;;17.15;16.45;;;;;;;;;;5073429;28;20044;-91
2023/03/20 13:03:05;;;;;;;8.85;8.43;;;;;;;;;;5076118;28;20131;-93
2023/03/20 13:05:36;;;;;;;12.82;12.27;;;;;;;;;;5075616;28;20041;-92
2023/03/20 13:08:10;;;;;;;9.15;8.75;;;;;;;;;;5069726;28;20481;-93
2023/03/20 13:10:39;;;;;;;7.32;6.93;;;;;;;;;;5076926;28;20044;-91
2023/03/20 13:13:10;;;;;;;7.72;7.22;;;;;;;;;;5074936;28;20053;-92
2023/03/20 13:15:48;;;;;;;10.00;9.48;;;;;;;;;;5075165;28;20417;-91
2023/03/20 13:18:17;;;;;;;10.73;10.13;;;;;;;;;;5059806;28;20044;-92
2023/03/20 13:20:48;;;;;;;8.73;8.30;;;;;;;;;;5074197;28;20627;-91
2023/03/20 13:23:20;;;;;;;7.80;7.38;;;;;;;;;;5074794;28;20079;-91
2023/03/20 13:25:55;;;;;;;12.02;11.48;;;;;;;;;;5071733;28;20464;-91
2023/03/20 13:28:29;;;;;;;11.65;11.05;;;;;;;;;;5071886;28;20052;-91
2023/03/20 13:30:59;;;;;;;16.15;15.50;;;;;;;;;;5084629;28;20040;-90
2023/03/20 13:33:32;;;;;;;9.40;8.82;;;;;;;;;;5091061;28;20044;-90
2023/03/20 13:36:03;;;;;;;9.65;9.25;;;;;;;;;;5073143;28;20048;-92
2023/03/20 13:38:32;;;;;;;15.18;14.45;;;;;;;;;;5070026;28;20056;-91
2023/03/20 13:41:00;;;;;;;8.68;8.18;;;;;;;;;;5074804;28;20118;-92
2023/03/20 13:43:28;;;;;;;10.90;10.38;;;;;;;;;;5072936;28;20140;-91
2023/03/20 13:45:59;;;;;;;9.68;9.27;;;;;;;;;;5072863;28;20051;-91
2023/03/20 13:48:29;;;;;;;14.38;13.77;;;;;;;;;;5070557;28;20127;-90
2023/03/20 13:50:58;;;;;;;11.02;10.32;;;;;;;;;;5076276;28;20040;-90
2023/03/20 13:53:30;;;;;;;13.68;13.07;;;;;;;;;;5073393;28;20063;-91
2023/03/20 13:56:00;;;;;;;9.98;9.48;;;;;;;;;;5083299;28;20135;-91
2023/03/20 13:58:41;;;;;;;8.55;8.07;;;;;;;;;;5076509;28;20052;-91
2023/03/20 14:01:12;;;;;;;8.70;8.10;;;;;;;;;;5077101;28;20048;-91
2023/03/20 14:03:40;;;;;;;11.88;11.32;;;;;;;;;;5076294;28;20498;-90
2023/03/20 14:06:16;;;;;;;11.38;10.77;;;;;;;;;;5076087;28;20430;-91
2023/03/20 14:08:47;;;;;;;8.05;7.65;;;;;;;;;;5076705;28;20520;-92
2023/03/20 14:11:15;;;;;;;11.68;11.07;;;;;;;;;;5076480;28;20101;-91
2023/03/20 14:13:44;;;;;;;7.38;7.00;;;;;;;;;;5076163;28;20048;-91
2023/03/20 14:16:11;;;;;;;10.18;9.68;;;;;;;;;;5073708;28;20687;-92
2023/03/20 14:18:38;;;;;;;8.00;7.60;;;;;;;;;;5076329;28;20104;-92
2023/03/20 14:21:11;;;;;;;7.40;6.97;;;;;;;;;;5075304;28;20094;-91
2023/03/20 14:23:38;;;;;;;8.73;8.23;;;;;;;;;;5075994;28;20048;-90
2023/03/20 14:26:08;;;;;;;7.38;6.90;;;;;;;;;;5075459;28;20083;-92
2023/03/20 14:28:44;;;;;;;13.70;13.00;;;;;;;;;;5075761;28;20048;-91
2023/03/20 14:31:12;;;;;;;14.98;14.25;;;;;;;;;;5072379;28;20131;-91
2023/03/20 14:33:42;;;;;;;9.32;8.82;;;;;;;;;;5076191;28;20057;-91
2023/03/20 14:36:17;;;;;;;8.43;7.93;;;;;;;;;;5084535;28;20132;-91
2023/03/20 14:38:47;;;;;;;9.15;8.70;;;;;;;;;;5080322;28;20128;-90
2023/03/20 14:41:19;;;;;;;8.57;8.10;;;;;;;;;;5083030;28;20067;-90
2023/03/20 14:43:57;;;;;;;6.07;5.63;;;;;;;;;;5083710;28;20060;-89
2023/03/20 14:46:27;;;;;;;5.75;5.45;;;;;;;;;;5094245;28;20047;-89
2023/03/20 14:48:55;;;;;;;8.40;7.95;;;;;;;;;;5101272;28;20051;-89